createdAt,value
2023-05-04T00:00:32.919Z,22.9
2023-05-04T00:15:32.697Z,22.9
2023-05-04T00:30:32.720Z,22.9
2023-05-04T00:45:32.075Z,22.8
2023-05-04T01:00:32.185Z,22.8
2023-05-04T01:15:32.396Z,22.8
2023-05-04T01:30:32.046Z,22.8
2023-05-04T01:45:32.185Z,22.7
2023-05-04T02:00:32.240Z,22.7
2023-05-04T02:15:31.931Z,22.7
2023-05-04T02:30:32.794Z,22.7
2023-05-04T02:45:32.048Z,22.7
2023-05-04T03:00:33.494Z,22.6
2023-05-04T03:15:31.892Z,22.6
2023-05-04T03:30:32.581Z,22.6
2023-05-04T03:45:32.139Z,22.6
2023-05-04T04:00:32.772Z,22.6
2023-05-04T04:15:32.926Z,22.5
2023-05-04T04:30:32.763Z,22.5
2023-05-04T04:45:33.768Z,22.5
2023-05-04T05:00:32.954Z,22.5
2023-05-04T05:15:33.332Z,22.6
2023-05-04T05:30:33.086Z,22.6
2023-05-04T05:45:32.704Z,22.6
2023-05-04T06:00:33.731Z,22.7
2023-05-04T06:15:32.121Z,22.7
2023-05-04T06:30:33.279Z,22.7
2023-05-04T06:45:32.527Z,22.8
2023-05-04T07:00:33.175Z,22.8
2023-05-04T07:15:32.377Z,22.9
2023-05-04T07:30:33.910Z,23.0
2023-05-04T07:45:33.661Z,23
2023-05-04T08:00:34.116Z,23.1
2023-05-04T08:15:32.692Z,23.1
2023-05-04T08:30:33.273Z,23.1
2023-05-04T08:45:32.855Z,23.2
2023-05-04T09:00:33.707Z,23.3
2023-05-04T09:15:32.558Z,23.3
2023-05-04T09:30:33.198Z,23.3
2023-05-04T09:45:33.047Z,23.4
2023-05-04T10:00:34.304Z,23.4
2023-05-04T10:15:32.007Z,23.4
2023-05-04T10:30:32.254Z,23.5
2023-05-04T10:45:32.652Z,23.5
2023-05-04T11:00:32.887Z,23.7
2023-05-04T11:15:33.182Z,23.9
2023-05-04T11:30:33.711Z,24.3
2023-05-04T11:45:33.591Z,24.4
2023-05-04T12:00:33.014Z,24.6
2023-05-04T12:15:33.731Z,24.7
2023-05-04T12:30:33.616Z,24.8
2023-05-04T12:45:32.171Z,24.9
2023-05-04T13:00:33.057Z,25.1
2023-05-04T13:15:32.378Z,25.1
2023-05-04T13:30:33.622Z,25.3
2023-05-04T13:45:32.073Z,25.4
2023-05-04T14:00:34.115Z,25.4
2023-05-04T14:15:31.951Z,25.4
2023-05-04T14:30:33.270Z,25.3
2023-05-04T14:45:32.135Z,25.3
2023-05-04T15:00:33.572Z,25.2
2023-05-04T15:15:32.005Z,25.2
2023-05-04T15:30:33.195Z,25.1
2023-05-04T15:45:32.944Z,25.1
2023-05-04T16:00:34.320Z,25.2
2023-05-04T16:15:32.679Z,25.2
2023-05-04T16:30:32.417Z,25.2
2023-05-04T16:45:32.396Z,25.2
2023-05-04T17:00:33.503Z,25.5
2023-05-04T17:15:32.045Z,25.3
2023-05-04T17:30:33.444Z,25.3
2023-05-04T17:45:32.096Z,25.2
2023-05-04T18:00:33.665Z,25.1
2023-05-04T18:15:32.675Z,25.0
2023-05-04T18:30:33.387Z,24.9
2023-05-04T18:45:32.346Z,24.7
2023-05-04T19:00:33.397Z,24.6
2023-05-04T19:15:33.696Z,24.4
2023-05-04T19:30:33.368Z,24.3
2023-05-04T19:45:32.901Z,24.2
2023-05-04T20:00:33.492Z,24.1
2023-05-04T20:15:32.870Z,24.0
2023-05-04T20:30:33.036Z,24
2023-05-04T20:45:32.586Z,23.9
2023-05-04T21:00:33.635Z,23.8
2023-05-04T21:15:32.099Z,23.7
2023-05-04T21:30:33.143Z,23.6
2023-05-04T21:45:32.158Z,23.6
2023-05-04T22:00:33.779Z,23.5
2023-05-04T22:15:42.329Z,23.5
2023-05-04T22:30:32.685Z,23.4
2023-05-04T22:45:32.236Z,23.4
2023-05-04T23:00:32.274Z,23.3
2023-05-04T23:15:32.497Z,23.2
2023-05-04T23:30:32.135Z,23.2
2023-05-04T23:45:32.054Z,23.1
